Wednesday, October 22, 2014
23:13 UTC
  |  Log In   |  Register Free
Airport Search:

Lincoln Airport
(KLNK)

FAA data valid effective September 18, 2014 - November 13, 2014 (unless otherwise noted).

 
 
 
 
 
 
 
 
 
 
 
 
 
 

Current Aviation Weather for Lincoln Airport (KLNK)

The most recent METAR observation for KLNK was updated at: 2313
METAR Summary (Translated METAR)
KLNK
222254Z 28017G27KT 4SM +RA BR OVC060 18/16 A3002 RMK AO2 PK WND 28027/2251 WSHFT 2230 RAB45 PRESRR SLP164 P0004 T01830161
KAHQ
222255Z AUTO 28014G19KT 5SM RA SCT018 SCT039 OVC070 18/15 A3001 RMK AO2 P0004 T01820153
(24.5 nm NE from KLNK)
KBIE
222255Z AUTO 19013KT 10SM SCT070 23/11 A2999 RMK AO2 T02320109
(33 nm SE from KLNK)
TAF Summary (Translated TAF)
KLNK
221847Z 2219/2318 18012G22KT P6SM SCT250 TEMPO 2222/2302 5SM -TSRA BKN025CB FM230200 18007KT P6SM OVC100 FM230900 VRB05KT 4SM BR SCT250 FM231400 25010KT P6SM SCT250
  Airport Weather Conditions for KLNK

 Current Weather at LNK
77° F
Partly Cloudy and Breezy
South winds at 20.7 mph
LNK NOAA Radar

Pressure: 29.97 in
Humidity: 40%
Wind: South at 20.7 MPH (18 KT)
Dew Point: 51.1°F
Visibility: 10.00 mi


Airport Weather Forecast for KLNK

Translated METAR and TAF for KLNK
Translated METAR for KLNK (2308 UTC 22 October 2014)
found at http://aviationweather.gov/adds/metars/
 
METAR text: KLNK 222254Z 28017G27KT 4SM +RA BR OVC060 18/16 A3002 RMK AO2 PK WND 28027/2251 WSHFT 2230 RAB45 PRESRR SLP164 P0004 T01830161
Conditions at: KLNK (LINCOLN , NE, US) observed 2254 UTC 22 October 2014
Temperature: 18.3°C (65°F)
Dewpoint: 16.1°C (61°F) [RH = 87%]
Pressure (altimeter): 30.02 inches Hg (1016.7 mb)
[Sea-level pressure: 1016.4 mb]
Winds: from the W (280 degrees) at 20 MPH (17 knots; 8.8 m/s)
gusting to 31 MPH (27 knots; 14.0 m/s)
Visibility: 4 miles (6 km)
Ceiling: 6000 feet AGL
Clouds: overcast cloud deck at 6000 feet AGL
Weather: +RA BR  (heavy rain, mist)
Translated TAF for KLNK
Forecast for: KLNK (LINCOLN , NE, US)
TAF Text: KLNK 221847Z 2219/2318 18012G22KT P6SM SCT250
Forecast period: 1900 UTC 22 October 2014 to 0200 UTC 23 October 2014
Forecast type: FROM: standard forecast or significant change
Winds: from the S (180 degrees) at 14 MPH (12 knots; 6.2 m/s)
gusting to 25 MPH (22 knots; 11.4 m/s)
Visibility: 6 or more miles (10+ km)
Clouds: scattered clouds at 25000 feet AGL
Weather: no significant weather forecast for this period
TAF Text: TEMPO 2222/2302 5SM -TSRA BKN025CB
Forecast period: 2200 UTC 22 October 2014 to 0200 UTC 23 October 2014
Forecast type: TEMPORARY: The following changes expected for less than half the time period
Visibility: 5 miles (8 km)
Ceiling: 2500 feet AGL
Clouds: broken clouds at 2500 feet AGL
Weather: -TSRA  (light rain associated with thunderstorm(s))
TAF Text: FM230200 18007KT P6SM OVC100
Forecast period: 0200 to 0900 UTC 23 October 2014
Forecast type: FROM: standard forecast or significant change
Winds: from the S (180 degrees) at 8 MPH (7 knots; 3.6 m/s)
Visibility: 6 or more miles (10+ km)
Ceiling: 10000 feet AGL
Clouds: overcast cloud deck at 10000 feet AGL
Weather: no significant weather forecast for this period
TAF Text: FM230900 VRB05KT 4SM BR SCT250
Forecast period: 0900 to 1400 UTC 23 October 2014
Forecast type: FROM: standard forecast or significant change
Winds: variable direction winds at 6 MPH (5 knots; 2.6 m/s)
Visibility: 4 miles (6 km)
Clouds: scattered clouds at 25000 feet AGL
Weather: BR  (mist)
TAF Text: FM231400 25010KT P6SM SCT250
Forecast period: 1400 to 1800 UTC 23 October 2014
Forecast type: FROM: standard forecast or significant change
Winds: from the WSW (250 degrees) at 12 MPH (10 knots; 5.2 m/s)
Visibility: 6 or more miles (10+ km)
Clouds: scattered clouds at 25000 feet AGL
Weather: no significant weather forecast for this period

Find All Airport Services Find A Hotel Find A Rental Car Find A Golf Course Find A Restaurant $100 Hamburger



FBO's on the Field
FBO Company Facility Photos Services Transportation Aviation Fuel Prices: Prices include tax
Catering Weather Repair Courtesy Rental Type 100LL JetA JetA+ MOGAS 8087
 
Duncan Aviation

This FBO has not yet been rated
FS:Avfuel
Last Updated: Oct-21
Login to update fuel prices
SS:
Contact Duncan AviationMore FBO Information
 
Silverhawk Aviation

This FBO has not yet been rated
FS: Phillips 66
Last Updated: Oct-21
Login to update fuel prices
SS:
Contact Silverhawk AviationMore FBO Information
 
Add another FBO Facility Photos Catering Weather Repair Courtesy Rental Type 100LL JetA JetA+ MOGAS 8087
Services Transportation Aviation Fuel Prices: Prices include tax


model-print
model-print
model-print
model-print